sensor_id;sensor_type;location;lat;lon;timestamp;temperature;humidity
46356;DHT22;32066;49.474;11.106;2023-09-19T00:02:05;18.30;99.90
46356;DHT22;32066;49.474;11.106;2023-09-19T00:04:34;18.40;99.90
46356;DHT22;32066;49.474;11.106;2023-09-19T00:07:05;18.40;99.90
46356;DHT22;32066;49.474;11.106;2023-09-19T00:09:34;18.50;99.90
46356;DHT22;32066;49.474;11.106;2023-09-19T00:12:05;18.50;99.90
46356;DHT22;32066;49.474;11.106;2023-09-19T00:14:37;18.60;99.90
46356;DHT22;32066;49.474;11.106;2023-09-19T00:17:06;18.50;99.90
46356;DHT22;32066;49.474;11.106;2023-09-19T00:19:34;18.50;99.90
46356;DHT22;32066;49.474;11.106;2023-09-19T00:22:03;18.50;99.90
46356;DHT22;32066;49.474;11.106;2023-09-19T00:24:33;18.50;99.90
46356;DHT22;32066;49.474;11.106;2023-09-19T00:27:01;18.40;99.90
46356;DHT22;32066;49.474;11.106;2023-09-19T00:29:31;18.50;99.90
46356;DHT22;32066;49.474;11.106;2023-09-19T00:32:03;18.50;99.90
46356;DHT22;32066;49.474;11.106;2023-09-19T00:34:31;18.50;99.90
46356;DHT22;32066;49.474;11.106;2023-09-19T00:37:01;18.50;99.90
46356;DHT22;32066;49.474;11.106;2023-09-19T00:39:30;18.60;99.90
46356;DHT22;32066;49.474;11.106;2023-09-19T00:41:59;18.60;99.90
46356;DHT22;32066;49.474;11.106;2023-09-19T00:44:30;18.60;99.90
46356;DHT22;32066;49.474;11.106;2023-09-19T00:47:03;18.60;99.90
46356;DHT22;32066;49.474;11.106;2023-09-19T00:49:32;18.60;99.90
46356;DHT22;32066;49.474;11.106;2023-09-19T00:52:03;18.60;99.90
46356;DHT22;32066;49.474;11.106;2023-09-19T00:54:32;18.50;99.90
46356;DHT22;32066;49.474;11.106;2023-09-19T00:57:02;18.50;99.90
46356;DHT22;32066;49.474;11.106;2023-09-19T00:59:31;18.50;99.90
46356;DHT22;32066;49.474;11.106;2023-09-19T01:02:04;18.60;99.90
46356;DHT22;32066;49.474;11.106;2023-09-19T01:04:32;18.60;99.90
46356;DHT22;32066;49.474;11.106;2023-09-19T01:07:01;18.60;99.90
46356;DHT22;32066;49.474;11.106;2023-09-19T01:09:30;18.60;99.90
46356;DHT22;32066;49.474;11.106;2023-09-19T01:12:02;18.60;99.90
46356;DHT22;32066;49.474;11.106;2023-09-19T01:14:50;18.50;99.90
46356;DHT22;32066;49.474;11.106;2023-09-19T01:17:30;18.40;99.90
46356;DHT22;32066;49.474;11.106;2023-09-19T01:20:15;18.50;99.90
46356;DHT22;32066;49.474;11.106;2023-09-19T01:22:55;18.40;99.90
46356;DHT22;32066;49.474;11.106;2023-09-19T01:28:30;18.50;99.90
46356;DHT22;32066;49.474;11.106;2023-09-19T01:31:08;18.50;99.90
46356;DHT22;32066;49.474;11.106;2023-09-19T01:33:58;18.50;99.90
46356;DHT22;32066;49.474;11.106;2023-09-19T01:36:31;18.50;99.90
46356;DHT22;32066;49.474;11.106;2023-09-19T01:39:04;18.40;99.90
46356;DHT22;32066;49.474;11.106;2023-09-19T01:41:47;18.50;99.90
46356;DHT22;32066;49.474;11.106;2023-09-19T01:44:24;18.50;99.90
46356;DHT22;32066;49.474;11.106;2023-09-19T01:46:58;18.40;99.90
46356;DHT22;32066;49.474;11.106;2023-09-19T01:49:35;18.40;99.90
46356;DHT22;32066;49.474;11.106;2023-09-19T01:52:10;18.50;99.90
46356;DHT22;32066;49.474;11.106;2023-09-19T01:54:46;18.50;99.90
46356;DHT22;32066;49.474;11.106;2023-09-19T01:57:20;18.50;99.90
46356;DHT22;32066;49.474;11.106;2023-09-19T01:59:59;18.50;99.90
46356;DHT22;32066;49.474;11.106;2023-09-19T02:02:45;18.50;99.90
46356;DHT22;32066;49.474;11.106;2023-09-19T02:05:22;18.50;99.90
46356;DHT22;32066;49.474;11.106;2023-09-19T02:07:53;18.40;99.90
46356;DHT22;32066;49.474;11.106;2023-09-19T02:10:22;18.40;99.90
46356;DHT22;32066;49.474;11.106;2023-09-19T02:12:51;18.40;99.90
46356;DHT22;32066;49.474;11.106;2023-09-19T02:15:20;18.40;99.90
46356;DHT22;32066;49.474;11.106;2023-09-19T02:17:51;18.40;99.90
46356;DHT22;32066;49.474;11.106;2023-09-19T02:20:22;18.40;99.90
46356;DHT22;32066;49.474;11.106;2023-09-19T02:22:52;18.40;99.70
46356;DHT22;32066;49.474;11.106;2023-09-19T02:25:20;18.40;99.90
46356;DHT22;32066;49.474;11.106;2023-09-19T02:27:49;18.40;99.90
46356;DHT22;32066;49.474;11.106;2023-09-19T02:30:19;18.30;99.90
46356;DHT22;32066;49.474;11.106;2023-09-19T02:32:53;18.30;99.90
46356;DHT22;32066;49.474;11.106;2023-09-19T02:35:22;18.20;99.90
46356;DHT22;32066;49.474;11.106;2023-09-19T02:37:51;18.10;99.90
46356;DHT22;32066;49.474;11.106;2023-09-19T02:40:20;18.10;99.90
46356;DHT22;32066;49.474;11.106;2023-09-19T02:42:53;18.00;99.90
46356;DHT22;32066;49.474;11.106;2023-09-19T02:45:25;18.10;99.90
46356;DHT22;32066;49.474;11.106;2023-09-19T02:47:56;18.10;99.90
46356;DHT22;32066;49.474;11.106;2023-09-19T02:50:25;18.10;99.90
46356;DHT22;32066;49.474;11.106;2023-09-19T02:52:54;18.10;99.90
46356;DHT22;32066;49.474;11.106;2023-09-19T02:55:23;18.20;99.90
46356;DHT22;32066;49.474;11.106;2023-09-19T02:57:53;18.30;99.90
46356;DHT22;32066;49.474;11.106;2023-09-19T03:00:23;18.20;99.90
46356;DHT22;32066;49.474;11.106;2023-09-19T03:02:56;18.20;99.90
46356;DHT22;32066;49.474;11.106;2023-09-19T03:05:28;18.30;99.90
46356;DHT22;32066;49.474;11.106;2023-09-19T03:07:58;18.30;99.90
46356;DHT22;32066;49.474;11.106;2023-09-19T03:10:30;18.30;99.90
46356;DHT22;32066;49.474;11.106;2023-09-19T03:12:59;18.20;99.90
46356;DHT22;32066;49.474;11.106;2023-09-19T03:15:29;18.10;99.90
46356;DHT22;32066;49.474;11.106;2023-09-19T03:18:00;18.10;99.90
46356;DHT22;32066;49.474;11.106;2023-09-19T03:20:29;18.10;99.90
46356;DHT22;32066;49.474;11.106;2023-09-19T03:22:58;18.10;99.90
46356;DHT22;32066;49.474;11.106;2023-09-19T03:25:28;18.10;99.90
46356;DHT22;32066;49.474;11.106;2023-09-19T03:27:57;18.00;99.90
46356;DHT22;32066;49.474;11.106;2023-09-19T03:30:27;18.10;99.90
46356;DHT22;32066;49.474;11.106;2023-09-19T03:32:55;18.10;99.90
46356;DHT22;32066;49.474;11.106;2023-09-19T03:35:28;18.10;99.90
46356;DHT22;32066;49.474;11.106;2023-09-19T03:37:57;18.20;99.90
46356;DHT22;32066;49.474;11.106;2023-09-19T03:40:25;18.10;99.90
46356;DHT22;32066;49.474;11.106;2023-09-19T03:42:54;18.00;99.90
46356;DHT22;32066;49.474;11.106;2023-09-19T03:45:23;18.00;99.90
46356;DHT22;32066;49.474;11.106;2023-09-19T03:47:52;17.80;99.90
46356;DHT22;32066;49.474;11.106;2023-09-19T03:50:23;17.80;99.90
46356;DHT22;32066;49.474;11.106;2023-09-19T03:52:58;17.80;99.90
46356;DHT22;32066;49.474;11.106;2023-09-19T03:55:27;17.80;99.90
46356;DHT22;32066;49.474;11.106;2023-09-19T03:57:56;17.90;99.90
46356;DHT22;32066;49.474;11.106;2023-09-19T04:00:24;18.00;99.90
46356;DHT22;32066;49.474;11.106;2023-09-19T04:02:55;17.90;99.90
46356;DHT22;32066;49.474;11.106;2023-09-19T04:05:24;17.90;99.90
46356;DHT22;32066;49.474;11.106;2023-09-19T04:07:53;17.90;99.90
46356;DHT22;32066;49.474;11.106;2023-09-19T04:10:24;17.90;99.90
46356;DHT22;32066;49.474;11.106;2023-09-19T04:12:55;17.90;99.90
46356;DHT22;32066;49.474;11.106;2023-09-19T04:15:24;17.90;99.90
46356;DHT22;32066;49.474;11.106;2023-09-19T04:17:54;17.90;99.90
46356;DHT22;32066;49.474;11.106;2023-09-19T04:20:22;17.90;99.90
46356;DHT22;32066;49.474;11.106;2023-09-19T04:22:51;17.80;99.90
46356;DHT22;32066;49.474;11.106;2023-09-19T04:25:20;17.70;99.90
46356;DHT22;32066;49.474;11.106;2023-09-19T04:27:52;17.90;99.90
46356;DHT22;32066;49.474;11.106;2023-09-19T04:30:20;17.80;99.90
46356;DHT22;32066;49.474;11.106;2023-09-19T04:32:49;17.80;99.90
46356;DHT22;32066;49.474;11.106;2023-09-19T04:35:19;17.80;99.90
46356;DHT22;32066;49.474;11.106;2023-09-19T04:37:47;17.90;99.90
46356;DHT22;32066;49.474;11.106;2023-09-19T04:40:16;17.80;99.90
46356;DHT22;32066;49.474;11.106;2023-09-19T04:42:45;17.80;99.90
46356;DHT22;32066;49.474;11.106;2023-09-19T04:45:17;17.90;99.90
46356;DHT22;32066;49.474;11.106;2023-09-19T04:47:45;17.90;99.90
46356;DHT22;32066;49.474;11.106;2023-09-19T04:50:14;17.80;99.90
46356;DHT22;32066;49.474;11.106;2023-09-19T04:52:43;17.70;99.90
46356;DHT22;32066;49.474;11.106;2023-09-19T04:55:17;17.60;99.90
46356;DHT22;32066;49.474;11.106;2023-09-19T04:57:47;17.60;99.90
46356;DHT22;32066;49.474;11.106;2023-09-19T05:00:19;17.50;99.90
46356;DHT22;32066;49.474;11.106;2023-09-19T05:02:49;17.50;99.90
46356;DHT22;32066;49.474;11.106;2023-09-19T05:05:18;17.50;99.90
46356;DHT22;32066;49.474;11.106;2023-09-19T05:07:48;17.70;99.90
46356;DHT22;32066;49.474;11.106;2023-09-19T05:10:19;17.60;99.90
46356;DHT22;32066;49.474;11.106;2023-09-19T05:12:48;17.60;99.90
46356;DHT22;32066;49.474;11.106;2023-09-19T05:15:20;17.60;99.90
46356;DHT22;32066;49.474;11.106;2023-09-19T05:17:49;17.60;99.90
46356;DHT22;32066;49.474;11.106;2023-09-19T05:20:20;17.60;99.90
46356;DHT22;32066;49.474;11.106;2023-09-19T05:22:58;17.60;99.90
46356;DHT22;32066;49.474;11.106;2023-09-19T05:25:27;17.50;99.90
46356;DHT22;32066;49.474;11.106;2023-09-19T05:27:57;17.50;99.90
46356;DHT22;32066;49.474;11.106;2023-09-19T05:30:32;17.50;99.90
46356;DHT22;32066;49.474;11.106;2023-09-19T05:33:02;17.50;99.90
46356;DHT22;32066;49.474;11.106;2023-09-19T05:35:31;17.50;99.90
46356;DHT22;32066;49.474;11.106;2023-09-19T05:38:00;17.40;99.90
46356;DHT22;32066;49.474;11.106;2023-09-19T05:40:31;17.50;99.90
46356;DHT22;32066;49.474;11.106;2023-09-19T05:43:00;17.50;99.90
46356;DHT22;32066;49.474;11.106;2023-09-19T05:45:34;17.50;99.90
46356;DHT22;32066;49.474;11.106;2023-09-19T05:48:08;17.50;99.90
46356;DHT22;32066;49.474;11.106;2023-09-19T05:50:38;17.50;99.90
46356;DHT22;32066;49.474;11.106;2023-09-19T05:53:07;17.50;99.90
46356;DHT22;32066;49.474;11.106;2023-09-19T05:55:37;17.50;99.90
46356;DHT22;32066;49.474;11.106;2023-09-19T05:58:06;17.60;99.90
46356;DHT22;32066;49.474;11.106;2023-09-19T06:00:38;17.50;99.90
46356;DHT22;32066;49.474;11.106;2023-09-19T06:03:07;17.40;99.90
46356;DHT22;32066;49.474;11.106;2023-09-19T06:05:37;17.60;99.90
46356;DHT22;32066;49.474;11.106;2023-09-19T06:08:06;17.50;99.90
46356;DHT22;32066;49.474;11.106;2023-09-19T06:10:35;17.60;99.90
46356;DHT22;32066;49.474;11.106;2023-09-19T06:13:04;17.60;99.90
46356;DHT22;32066;49.474;11.106;2023-09-19T06:15:38;17.70;99.90
46356;DHT22;32066;49.474;11.106;2023-09-19T06:18:10;17.70;99.90
46356;DHT22;32066;49.474;11.106;2023-09-19T06:20:40;17.70;99.90
46356;DHT22;32066;49.474;11.106;2023-09-19T06:23:10;17.70;99.90
46356;DHT22;32066;49.474;11.106;2023-09-19T06:25:38;17.80;99.90
46356;DHT22;32066;49.474;11.106;2023-09-19T06:28:09;17.80;99.90
46356;DHT22;32066;49.474;11.106;2023-09-19T06:30:41;17.80;99.90
46356;DHT22;32066;49.474;11.106;2023-09-19T06:33:09;17.80;99.90
46356;DHT22;32066;49.474;11.106;2023-09-19T06:35:39;17.80;99.90
46356;DHT22;32066;49.474;11.106;2023-09-19T06:38:12;17.70;99.90
46356;DHT22;32066;49.474;11.106;2023-09-19T06:40:41;17.70;99.90
46356;DHT22;32066;49.474;11.106;2023-09-19T06:43:11;17.70;99.90
46356;DHT22;32066;49.474;11.106;2023-09-19T06:45:42;17.80;99.90
46356;DHT22;32066;49.474;11.106;2023-09-19T06:48:11;17.90;99.90
46356;DHT22;32066;49.474;11.106;2023-09-19T06:50:40;17.90;99.90
46356;DHT22;32066;49.474;11.106;2023-09-19T06:53:10;17.90;99.90
46356;DHT22;32066;49.474;11.106;2023-09-19T06:55:39;17.90;99.90
46356;DHT22;32066;49.474;11.106;2023-09-19T06:58:09;17.90;99.90
46356;DHT22;32066;49.474;11.106;2023-09-19T07:00:38;17.90;99.90
46356;DHT22;32066;49.474;11.106;2023-09-19T07:03:09;17.90;99.90
46356;DHT22;32066;49.474;11.106;2023-09-19T07:05:39;18.00;99.90
46356;DHT22;32066;49.474;11.106;2023-09-19T07:08:09;18.10;99.90
46356;DHT22;32066;49.474;11.106;2023-09-19T07:10:38;18.00;99.90
46356;DHT22;32066;49.474;11.106;2023-09-19T07:13:14;18.10;99.40
46356;DHT22;32066;49.474;11.106;2023-09-19T07:15:44;18.20;99.00
46356;DHT22;32066;49.474;11.106;2023-09-19T07:18:18;18.20;98.50
46356;DHT22;32066;49.474;11.106;2023-09-19T07:20:47;18.20;97.70
46356;DHT22;32066;49.474;11.106;2023-09-19T07:23:17;18.10;96.80
46356;DHT22;32066;49.474;11.106;2023-09-19T07:25:48;18.20;96.90
46356;DHT22;32066;49.474;11.106;2023-09-19T07:28:17;18.20;96.40
46356;DHT22;32066;49.474;11.106;2023-09-19T07:30:46;18.20;95.20
46356;DHT22;32066;49.474;11.106;2023-09-19T07:33:14;18.30;95.40
46356;DHT22;32066;49.474;11.106;2023-09-19T07:35:48;18.30;95.70
46356;DHT22;32066;49.474;11.106;2023-09-19T07:38:17;18.30;95.70
46356;DHT22;32066;49.474;11.106;2023-09-19T07:40:47;18.40;95.90
46356;DHT22;32066;49.474;11.106;2023-09-19T07:43:15;18.40;95.90
46356;DHT22;32066;49.474;11.106;2023-09-19T07:45:44;18.50;95.30
46356;DHT22;32066;49.474;11.106;2023-09-19T07:48:13;18.50;95.40
46356;DHT22;32066;49.474;11.106;2023-09-19T07:50:42;18.50;95.10
46356;DHT22;32066;49.474;11.106;2023-09-19T07:53:14;18.50;94.50
46356;DHT22;32066;49.474;11.106;2023-09-19T07:55:43;18.50;93.70
46356;DHT22;32066;49.474;11.106;2023-09-19T07:58:13;18.40;93.50
46356;DHT22;32066;49.474;11.106;2023-09-19T08:00:42;18.40;94.10
46356;DHT22;32066;49.474;11.106;2023-09-19T08:03:11;18.30;93.60
46356;DHT22;32066;49.474;11.106;2023-09-19T08:05:40;18.40;94.00
46356;DHT22;32066;49.474;11.106;2023-09-19T08:08:09;18.50;93.40
46356;DHT22;32066;49.474;11.106;2023-09-19T08:10:42;18.50;93.60
46356;DHT22;32066;49.474;11.106;2023-09-19T08:13:14;18.60;94.00
46356;DHT22;32066;49.474;11.106;2023-09-19T08:15:44;18.70;93.20
46356;DHT22;32066;49.474;11.106;2023-09-19T08:18:13;18.70;93.20
46356;DHT22;32066;49.474;11.106;2023-09-19T08:20:42;18.80;93.20
46356;DHT22;32066;49.474;11.106;2023-09-19T08:23:12;18.70;92.90
46356;DHT22;32066;49.474;11.106;2023-09-19T08:25:45;18.60;93.60
46356;DHT22;32066;49.474;11.106;2023-09-19T08:28:14;18.60;93.70
46356;DHT22;32066;49.474;11.106;2023-09-19T08:30:45;18.60;93.70
46356;DHT22;32066;49.474;11.106;2023-09-19T08:33:13;18.60;93.80
46356;DHT22;32066;49.474;11.106;2023-09-19T08:35:43;18.70;94.00
46356;DHT22;32066;49.474;11.106;2023-09-19T08:38:12;18.70;94.10
46356;DHT22;32066;49.474;11.106;2023-09-19T08:40:41;18.60;94.30
46356;DHT22;32066;49.474;11.106;2023-09-19T08:43:12;18.70;94.60
46356;DHT22;32066;49.474;11.106;2023-09-19T08:45:41;18.80;94.40
46356;DHT22;32066;49.474;11.106;2023-09-19T08:48:20;18.80;94.60
46356;DHT22;32066;49.474;11.106;2023-09-19T08:50:54;19.00;94.70
46356;DHT22;32066;49.474;11.106;2023-09-19T08:53:32;19.10;94.40
46356;DHT22;32066;49.474;11.106;2023-09-19T08:56:08;19.10;94.40
46356;DHT22;32066;49.474;11.106;2023-09-19T08:58:45;19.00;93.80
46356;DHT22;32066;49.474;11.106;2023-09-19T09:01:15;19.10;94.70
46356;DHT22;32066;49.474;11.106;2023-09-19T09:03:50;19.20;94.50
46356;DHT22;32066;49.474;11.106;2023-09-19T09:06:20;19.20;93.60
46356;DHT22;32066;49.474;11.106;2023-09-19T09:08:50;19.30;93.30
46356;DHT22;32066;49.474;11.106;2023-09-19T09:11:19;19.40;93.20
46356;DHT22;32066;49.474;11.106;2023-09-19T09:13:52;19.50;93.00
46356;DHT22;32066;49.474;11.106;2023-09-19T09:16:21;19.40;92.60
46356;DHT22;32066;49.474;11.106;2023-09-19T09:18:52;19.40;92.70
46356;DHT22;32066;49.474;11.106;2023-09-19T09:21:21;19.20;92.90
46356;DHT22;32066;49.474;11.106;2023-09-19T09:23:50;19.20;93.30
46356;DHT22;32066;49.474;11.106;2023-09-19T09:29:12;19.10;93.00
46356;DHT22;32066;49.474;11.106;2023-09-19T09:31:41;19.00;93.00
46356;DHT22;32066;49.474;11.106;2023-09-19T09:34:10;19.00;93.10
46356;DHT22;32066;49.474;11.106;2023-09-19T09:36:40;19.00;92.60
46356;DHT22;32066;49.474;11.106;2023-09-19T09:39:09;18.90;92.00
46356;DHT22;32066;49.474;11.106;2023-09-19T09:41:45;18.80;91.70
46356;DHT22;32066;49.474;11.106;2023-09-19T09:44:17;18.80;91.80
46356;DHT22;32066;49.474;11.106;2023-09-19T09:46:48;18.90;92.00
46356;DHT22;32066;49.474;11.106;2023-09-19T09:49:41;18.90;91.90
46356;DHT22;32066;49.474;11.106;2023-09-19T09:52:20;18.90;91.80
46356;DHT22;32066;49.474;11.106;2023-09-19T09:55:00;18.90;92.10
46356;DHT22;32066;49.474;11.106;2023-09-19T09:57:31;19.00;92.20
46356;DHT22;32066;49.474;11.106;2023-09-19T10:00:03;19.10;92.00
46356;DHT22;32066;49.474;11.106;2023-09-19T10:02:46;19.00;91.90
46356;DHT22;32066;49.474;11.106;2023-09-19T10:05:16;19.10;91.80
46356;DHT22;32066;49.474;11.106;2023-09-19T10:07:54;19.20;92.20
46356;DHT22;32066;49.474;11.106;2023-09-19T10:10:30;19.10;91.90
46356;DHT22;32066;49.474;11.106;2023-09-19T10:13:20;19.20;92.00
46356;DHT22;32066;49.474;11.106;2023-09-19T10:15:55;19.10;91.80
46356;DHT22;32066;49.474;11.106;2023-09-19T10:18:25;19.10;92.00
46356;DHT22;32066;49.474;11.106;2023-09-19T10:20:56;19.30;91.80
46356;DHT22;32066;49.474;11.106;2023-09-19T10:23:25;19.40;91.90
46356;DHT22;32066;49.474;11.106;2023-09-19T10:25:56;19.50;91.30
46356;DHT22;32066;49.474;11.106;2023-09-19T10:28:28;19.50;91.60
46356;DHT22;32066;49.474;11.106;2023-09-19T10:31:00;19.50;91.10
46356;DHT22;32066;49.474;11.106;2023-09-19T10:33:34;19.40;91.10
46356;DHT22;32066;49.474;11.106;2023-09-19T10:36:05;19.40;91.60
46356;DHT22;32066;49.474;11.106;2023-09-19T10:38:35;19.20;91.40
46356;DHT22;32066;49.474;11.106;2023-09-19T10:41:07;19.20;91.70
46356;DHT22;32066;49.474;11.106;2023-09-19T10:43:38;19.30;91.70
46356;DHT22;32066;49.474;11.106;2023-09-19T10:46:13;19.30;91.60
46356;DHT22;32066;49.474;11.106;2023-09-19T10:48:42;19.20;91.60
46356;DHT22;32066;49.474;11.106;2023-09-19T10:51:17;19.30;91.90
46356;DHT22;32066;49.474;11.106;2023-09-19T10:53:51;19.20;91.90
46356;DHT22;32066;49.474;11.106;2023-09-19T10:56:24;19.20;92.10
46356;DHT22;32066;49.474;11.106;2023-09-19T10:59:05;19.30;92.00
46356;DHT22;32066;49.474;11.106;2023-09-19T11:01:48;19.40;91.50
46356;DHT22;32066;49.474;11.106;2023-09-19T11:04:24;19.50;91.40
46356;DHT22;32066;49.474;11.106;2023-09-19T11:07:05;19.50;91.70
46356;DHT22;32066;49.474;11.106;2023-09-19T11:09:47;19.60;91.30
46356;DHT22;32066;49.474;11.106;2023-09-19T11:12:49;19.80;90.50
46356;DHT22;32066;49.474;11.106;2023-09-19T11:21:52;20.10;90.30
46356;DHT22;32066;49.474;11.106;2023-09-19T11:24:31;20.20;91.00
46356;DHT22;32066;49.474;11.106;2023-09-19T11:27:12;20.20;90.80
46356;DHT22;32066;49.474;11.106;2023-09-19T11:29:43;20.20;90.70
46356;DHT22;32066;49.474;11.106;2023-09-19T11:32:13;20.00;91.00
46356;DHT22;32066;49.474;11.106;2023-09-19T11:34:48;20.10;90.90
46356;DHT22;32066;49.474;11.106;2023-09-19T11:40:44;20.00;90.40
46356;DHT22;32066;49.474;11.106;2023-09-19T11:43:33;19.90;90.50
46356;DHT22;32066;49.474;11.106;2023-09-19T11:46:09;19.90;90.60
46356;DHT22;32066;49.474;11.106;2023-09-19T11:48:41;19.90;90.40
46356;DHT22;32066;49.474;11.106;2023-09-19T11:51:14;19.70;90.60
46356;DHT22;32066;49.474;11.106;2023-09-19T11:53:53;19.70;91.00
46356;DHT22;32066;49.474;11.106;2023-09-19T11:56:26;19.70;90.70
46356;DHT22;32066;49.474;11.106;2023-09-19T11:58:57;19.80;90.20
46356;DHT22;32066;49.474;11.106;2023-09-19T12:01:29;19.80;89.60
46356;DHT22;32066;49.474;11.106;2023-09-19T12:04:01;19.70;89.50
46356;DHT22;32066;49.474;11.106;2023-09-19T12:06:30;19.80;89.80
46356;DHT22;32066;49.474;11.106;2023-09-19T12:09:01;20.00;89.10
46356;DHT22;32066;49.474;11.106;2023-09-19T12:11:41;20.20;88.50
46356;DHT22;32066;49.474;11.106;2023-09-19T12:14:11;20.10;87.90
46356;DHT22;32066;49.474;11.106;2023-09-19T12:16:41;20.20;86.40
46356;DHT22;32066;49.474;11.106;2023-09-19T12:19:21;20.40;85.20
46356;DHT22;32066;49.474;11.106;2023-09-19T12:21:58;20.70;84.10
46356;DHT22;32066;49.474;11.106;2023-09-19T12:24:30;20.80;83.20
46356;DHT22;32066;49.474;11.106;2023-09-19T12:27:05;20.90;82.90
46356;DHT22;32066;49.474;11.106;2023-09-19T12:29:45;21.00;81.90
46356;DHT22;32066;49.474;11.106;2023-09-19T12:32:14;20.80;81.10
46356;DHT22;32066;49.474;11.106;2023-09-19T12:34:55;20.90;82.10
46356;DHT22;32066;49.474;11.106;2023-09-19T12:37:25;21.10;81.10
46356;DHT22;32066;49.474;11.106;2023-09-19T12:40:04;21.10;81.10
46356;DHT22;32066;49.474;11.106;2023-09-19T12:42:44;21.20;80.30
46356;DHT22;32066;49.474;11.106;2023-09-19T12:45:14;21.10;80.00
46356;DHT22;32066;49.474;11.106;2023-09-19T12:51:01;21.10;80.00
46356;DHT22;32066;49.474;11.106;2023-09-19T12:53:32;21.10;79.80
46356;DHT22;32066;49.474;11.106;2023-09-19T12:56:05;21.00;79.00
46356;DHT22;32066;49.474;11.106;2023-09-19T12:58:48;21.00;80.40
46356;DHT22;32066;49.474;11.106;2023-09-19T13:01:19;21.30;80.10
46356;DHT22;32066;49.474;11.106;2023-09-19T13:04:12;21.20;79.20
46356;DHT22;32066;49.474;11.106;2023-09-19T13:06:44;21.20;79.70
46356;DHT22;32066;49.474;11.106;2023-09-19T13:09:15;21.20;80.10
46356;DHT22;32066;49.474;11.106;2023-09-19T13:11:44;21.20;80.40
46356;DHT22;32066;49.474;11.106;2023-09-19T13:14:18;21.30;81.00
46356;DHT22;32066;49.474;11.106;2023-09-19T13:16:57;21.30;80.20
46356;DHT22;32066;49.474;11.106;2023-09-19T13:19:39;21.30;80.60
46356;DHT22;32066;49.474;11.106;2023-09-19T13:22:36;21.50;78.80
46356;DHT22;32066;49.474;11.106;2023-09-19T13:25:08;21.60;78.50
46356;DHT22;32066;49.474;11.106;2023-09-19T13:27:40;21.80;79.50
46356;DHT22;32066;49.474;11.106;2023-09-19T13:30:13;21.90;79.10
46356;DHT22;32066;49.474;11.106;2023-09-19T13:32:41;21.80;79.30
46356;DHT22;32066;49.474;11.106;2023-09-19T13:35:11;21.70;78.80
46356;DHT22;32066;49.474;11.106;2023-09-19T13:37:40;21.60;79.70
46356;DHT22;32066;49.474;11.106;2023-09-19T13:40:13;21.50;79.30
46356;DHT22;32066;49.474;11.106;2023-09-19T13:42:43;21.50;79.80
46356;DHT22;32066;49.474;11.106;2023-09-19T13:45:14;21.50;79.00
46356;DHT22;32066;49.474;11.106;2023-09-19T13:47:47;21.60;79.10
46356;DHT22;32066;49.474;11.106;2023-09-19T13:50:16;21.70;79.50
46356;DHT22;32066;49.474;11.106;2023-09-19T13:52:49;21.80;79.10
46356;DHT22;32066;49.474;11.106;2023-09-19T13:55:19;21.90;77.60
46356;DHT22;32066;49.474;11.106;2023-09-19T13:57:49;21.80;78.30
46356;DHT22;32066;49.474;11.106;2023-09-19T14:00:23;21.70;79.40
46356;DHT22;32066;49.474;11.106;2023-09-19T14:02:52;21.90;78.70
46356;DHT22;32066;49.474;11.106;2023-09-19T14:05:21;22.10;78.50
46356;DHT22;32066;49.474;11.106;2023-09-19T14:07:53;22.10;78.80
46356;DHT22;32066;49.474;11.106;2023-09-19T14:10:23;22.20;77.90
46356;DHT22;32066;49.474;11.106;2023-09-19T14:12:51;22.40;76.80
46356;DHT22;32066;49.474;11.106;2023-09-19T14:15:22;22.60;76.00
46356;DHT22;32066;49.474;11.106;2023-09-19T14:17:56;22.50;75.90
46356;DHT22;32066;49.474;11.106;2023-09-19T14:20:26;22.30;76.00
46356;DHT22;32066;49.474;11.106;2023-09-19T14:22:54;22.20;76.50
46356;DHT22;32066;49.474;11.106;2023-09-19T14:25:24;22.10;76.60
46356;DHT22;32066;49.474;11.106;2023-09-19T14:27:54;22.10;76.10
46356;DHT22;32066;49.474;11.106;2023-09-19T14:30:25;22.20;75.60
46356;DHT22;32066;49.474;11.106;2023-09-19T14:32:54;22.60;76.00
46356;DHT22;32066;49.474;11.106;2023-09-19T14:35:23;22.80;74.80
46356;DHT22;32066;49.474;11.106;2023-09-19T14:37:52;22.40;74.60
46356;DHT22;32066;49.474;11.106;2023-09-19T14:40:18;22.30;75.50
46356;DHT22;32066;49.474;11.106;2023-09-19T14:42:48;22.20;75.50
46356;DHT22;32066;49.474;11.106;2023-09-19T14:45:17;22.50;75.60
46356;DHT22;32066;49.474;11.106;2023-09-19T14:47:51;22.50;75.00
46356;DHT22;32066;49.474;11.106;2023-09-19T14:50:22;22.50;75.20
46356;DHT22;32066;49.474;11.106;2023-09-19T14:52:52;22.50;75.30
46356;DHT22;32066;49.474;11.106;2023-09-19T14:55:21;22.40;75.30
46356;DHT22;32066;49.474;11.106;2023-09-19T14:57:49;22.30;75.20
46356;DHT22;32066;49.474;11.106;2023-09-19T15:00:19;22.20;75.60
46356;DHT22;32066;49.474;11.106;2023-09-19T15:02:51;22.40;75.90
46356;DHT22;32066;49.474;11.106;2023-09-19T15:05:21;22.80;74.10
46356;DHT22;32066;49.474;11.106;2023-09-19T15:07:50;22.90;74.60
46356;DHT22;32066;49.474;11.106;2023-09-19T15:10:19;22.80;73.80
46356;DHT22;32066;49.474;11.106;2023-09-19T15:12:47;22.80;73.80
46356;DHT22;32066;49.474;11.106;2023-09-19T15:15:16;23.00;74.00
46356;DHT22;32066;49.474;11.106;2023-09-19T15:17:45;23.00;73.40
46356;DHT22;32066;49.474;11.106;2023-09-19T15:20:16;23.00;73.70
46356;DHT22;32066;49.474;11.106;2023-09-19T15:22:45;23.00;73.60
46356;DHT22;32066;49.474;11.106;2023-09-19T15:25:13;23.10;73.10
46356;DHT22;32066;49.474;11.106;2023-09-19T15:27:42;23.00;73.00
46356;DHT22;32066;49.474;11.106;2023-09-19T15:30:11;23.20;72.80
46356;DHT22;32066;49.474;11.106;2023-09-19T15:32:41;23.30;72.00
46356;DHT22;32066;49.474;11.106;2023-09-19T15:35:09;23.00;71.70
46356;DHT22;32066;49.474;11.106;2023-09-19T15:37:42;23.10;71.90
46356;DHT22;32066;49.474;11.106;2023-09-19T15:40:12;23.00;71.60
46356;DHT22;32066;49.474;11.106;2023-09-19T15:42:40;22.90;71.90
46356;DHT22;32066;49.474;11.106;2023-09-19T15:45:09;22.80;72.30
46356;DHT22;32066;49.474;11.106;2023-09-19T15:47:41;22.90;72.60
46356;DHT22;32066;49.474;11.106;2023-09-19T15:50:10;22.80;72.20
46356;DHT22;32066;49.474;11.106;2023-09-19T15:52:41;22.70;71.70
46356;DHT22;32066;49.474;11.106;2023-09-19T15:55:11;22.70;72.20
46356;DHT22;32066;49.474;11.106;2023-09-19T15:57:40;22.60;72.00
46356;DHT22;32066;49.474;11.106;2023-09-19T16:00:12;22.40;72.60
46356;DHT22;32066;49.474;11.106;2023-09-19T16:02:44;22.40;73.20